sensor_id;sensor_type;location;lat;lon;timestamp;pressure;altitude;pressure_sealevel;temperature;humidity
64388;BME280;50709;52.648;4.764;2023-02-23T00:01:13;101350.94;;;13.24;66.41
64388;BME280;50709;52.648;4.764;2023-02-23T00:03:38;101347.47;;;13.18;66.73
64388;BME280;50709;52.648;4.764;2023-02-23T00:06:05;101349.22;;;13.39;66.54
64388;BME280;50709;52.648;4.764;2023-02-23T00:08:31;101345.69;;;13.17;65.85
64388;BME280;50709;52.648;4.764;2023-02-23T00:11:00;101357.06;;;13.25;66.93
64388;BME280;50709;52.648;4.764;2023-02-23T00:13:26;101343.06;;;13.55;66.85
64388;BME280;50709;52.648;4.764;2023-02-23T00:15:52;101364.06;;;13.38;66.21
64388;BME280;50709;52.648;4.764;2023-02-23T00:18:42;101351.84;;;13.40;66.63
64388;BME280;50709;52.648;4.764;2023-02-23T00:21:23;101316.84;;;13.23;66.58
64388;BME280;50709;52.648;4.764;2023-02-23T00:23:51;101338.69;;;13.28;66.77
64388;BME280;50709;52.648;4.764;2023-02-23T00:26:19;101345.72;;;13.10;66.89
64388;BME280;50709;52.648;4.764;2023-02-23T00:28:46;101341.34;;;12.97;67.21
64388;BME280;50709;52.648;4.764;2023-02-23T00:31:11;101350.06;;;12.81;66.73
64388;BME280;50709;52.648;4.764;2023-02-23T00:33:38;101355.31;;;12.96;67.05
64388;BME280;50709;52.648;4.764;2023-02-23T00:36:12;101331.72;;;13.11;67.96
64388;BME280;50709;52.648;4.764;2023-02-23T00:38:39;101329.09;;;13.16;67.13
64388;BME280;50709;52.648;4.764;2023-02-23T00:41:11;101347.47;;;13.18;67.15
64388;BME280;50709;52.648;4.764;2023-02-23T00:43:39;101350.06;;;13.08;67.93
64388;BME280;50709;52.648;4.764;2023-02-23T00:46:15;101339.56;;;12.91;67.33
64388;BME280;50709;52.648;4.764;2023-02-23T00:48:42;101305.50;;;12.65;67.79
64388;BME280;50709;52.648;4.764;2023-02-23T00:51:08;101343.06;;;12.59;67.98
64388;BME280;50709;52.648;4.764;2023-02-23T00:53:34;101331.72;;;12.91;68.64
64388;BME280;50709;52.648;4.764;2023-02-23T00:55:59;101329.06;;;12.51;67.47
64388;BME280;50709;52.648;4.764;2023-02-23T00:58:25;101322.94;;;12.48;68.55
64388;BME280;50709;52.648;4.764;2023-02-23T01:00:52;101339.53;;;12.59;69.30
64388;BME280;50709;52.648;4.764;2023-02-23T01:03:17;101348.28;;;12.49;69.15
64388;BME280;50709;52.648;4.764;2023-02-23T01:05:43;101351.78;;;12.54;69.26
64388;BME280;50709;52.648;4.764;2023-02-23T01:08:11;101350.94;;;12.70;69.23
64388;BME280;50709;52.648;4.764;2023-02-23T01:10:40;101351.78;;;12.60;69.07
64388;BME280;50709;52.648;4.764;2023-02-23T01:13:08;101357.84;;;12.48;69.15
64388;BME280;50709;52.648;4.764;2023-02-23T01:15:39;101351.72;;;12.40;69.27
64388;BME280;50709;52.648;4.764;2023-02-23T01:18:05;101359.59;;;12.35;69.69
64388;BME280;50709;52.648;4.764;2023-02-23T01:20:33;101357.84;;;12.37;68.96
64388;BME280;50709;52.648;4.764;2023-02-23T01:23:00;101357.84;;;12.33;68.95
64388;BME280;50709;52.648;4.764;2023-02-23T01:25:26;101348.19;;;12.22;69.64
64388;BME280;50709;52.648;4.764;2023-02-23T01:27:53;101359.59;;;12.34;69.96
64388;BME280;50709;52.648;4.764;2023-02-23T01:30:19;101322.81;;;12.06;70.04
64388;BME280;50709;52.648;4.764;2023-02-23T01:32:45;101349.97;;;12.37;69.58
64388;BME280;50709;52.648;4.764;2023-02-23T01:35:11;101372.66;;;12.31;69.76
64388;BME280;50709;52.648;4.764;2023-02-23T01:37:39;101362.22;;;12.38;69.45
64388;BME280;50709;52.648;4.764;2023-02-23T01:40:07;101370.94;;;12.31;69.56
64388;BME280;50709;52.648;4.764;2023-02-23T01:42:38;101374.41;;;12.32;69.70
64388;BME280;50709;52.648;4.764;2023-02-23T01:47:50;101368.19;;;12.05;69.78
64388;BME280;50709;52.648;4.764;2023-02-23T01:50:16;101336.78;;;12.00;69.61
64388;BME280;50709;52.648;4.764;2023-02-23T01:52:44;101355.09;;;12.05;70.36
64388;BME280;50709;52.648;4.764;2023-02-23T01:55:12;101353.34;;;11.99;70.05
64388;BME280;50709;52.648;4.764;2023-02-23T01:57:39;101328.75;;;11.71;70.42
64388;BME280;50709;52.648;4.764;2023-02-23T02:00:06;101368.09;;;11.94;71.01
64388;BME280;50709;52.648;4.764;2023-02-23T02:02:39;101370.84;;;12.11;71.12
64388;BME280;50709;52.648;4.764;2023-02-23T02:05:06;101336.78;;;12.05;70.41
64388;BME280;50709;52.648;4.764;2023-02-23T02:07:38;101361.28;;;12.22;69.82
64388;BME280;50709;52.648;4.764;2023-02-23T02:10:06;101363.97;;;12.39;70.09
64388;BME280;50709;52.648;4.764;2023-02-23T02:12:35;101373.56;;;12.48;69.81
64388;BME280;50709;52.648;4.764;2023-02-23T02:15:03;101368.34;;;12.47;69.42
64388;BME280;50709;52.648;4.764;2023-02-23T02:40:06;101387.47;;;12.22;69.96
64388;BME280;50709;52.648;4.764;2023-02-23T02:43:12;101378.75;;;12.23;69.84
64388;BME280;50709;52.648;4.764;2023-02-23T02:46:13;101375.13;;;12.00;69.28
64388;BME280;50709;52.648;4.764;2023-02-23T02:51:26;101378.69;;;12.09;70.53
64388;BME280;50709;52.648;4.764;2023-02-23T02:56:32;101375.22;;;12.15;69.84
64388;BME280;50709;52.648;4.764;2023-02-23T02:59:06;101374.31;;;12.07;70.22
64388;BME280;50709;52.648;4.764;2023-02-23T03:01:52;101370.00;;;12.18;69.44
64388;BME280;50709;52.648;4.764;2023-02-23T03:04:36;101362.09;;;12.07;70.39
64388;BME280;50709;52.648;4.764;2023-02-23T03:07:28;101348.16;;;12.08;69.89
64388;BME280;50709;52.648;4.764;2023-02-23T03:16:30;101384.75;;;11.96;69.02
64388;BME280;50709;52.648;4.764;2023-02-23T03:19:25;101387.38;;;12.02;69.96
64388;BME280;50709;52.648;4.764;2023-02-23T03:22:27;101391.75;;;12.05;70.09
64388;BME280;50709;52.648;4.764;2023-02-23T03:25:40;101362.81;;;11.78;70.00
64388;BME280;50709;52.648;4.764;2023-02-23T03:28:31;101377.84;;;12.17;71.08
64388;BME280;50709;52.648;4.764;2023-02-23T03:31:31;101383.94;;;12.14;70.15
64388;BME280;50709;52.648;4.764;2023-02-23T03:34:39;101385.66;;;12.06;70.01
64388;BME280;50709;52.648;4.764;2023-02-23T03:37:36;101382.22;;;12.16;70.42
64388;BME280;50709;52.648;4.764;2023-02-23T03:40:26;101347.13;;;11.83;70.44
64388;BME280;50709;52.648;4.764;2023-02-23T03:43:16;101392.59;;;11.96;70.55
64388;BME280;50709;52.648;4.764;2023-02-23T03:46:03;101390.00;;;12.04;70.04
64388;BME280;50709;52.648;4.764;2023-02-23T03:48:52;101391.75;;;12.02;70.59
64388;BME280;50709;52.648;4.764;2023-02-23T03:51:40;101392.69;;;12.16;70.93
64388;BME280;50709;52.648;4.764;2023-02-23T03:54:36;101403.13;;;12.05;70.09
64388;BME280;50709;52.648;4.764;2023-02-23T03:57:23;101382.03;;;11.90;70.86
64388;BME280;50709;52.648;4.764;2023-02-23T04:00:15;101400.50;;;12.10;70.54
64388;BME280;50709;52.648;4.764;2023-02-23T04:03:02;101384.66;;;11.90;70.43
64388;BME280;50709;52.648;4.764;2023-02-23T04:05:50;101404.00;;;12.09;70.45
64388;BME280;50709;52.648;4.764;2023-02-23T04:08:37;101401.34;;;12.04;70.29
64388;BME280;50709;52.648;4.764;2023-02-23T04:14:30;101394.38;;;12.05;70.53
64388;BME280;50709;52.648;4.764;2023-02-23T04:17:01;101402.25;;;12.09;70.84
64388;BME280;50709;52.648;4.764;2023-02-23T04:19:27;101403.13;;;12.13;70.34
64388;BME280;50709;52.648;4.764;2023-02-23T04:21:53;101413.59;;;12.07;70.52
64388;BME280;50709;52.648;4.764;2023-02-23T04:24:19;101414.47;;;12.07;70.53
64388;BME280;50709;52.648;4.764;2023-02-23T04:26:44;101417.06;;;12.07;71.05
64388;BME280;50709;52.648;4.764;2023-02-23T04:29:11;101367.19;;;11.83;70.72
64388;BME280;50709;52.648;4.764;2023-02-23T04:31:37;101406.59;;;12.04;70.35
64388;BME280;50709;52.648;4.764;2023-02-23T04:34:03;101416.22;;;12.15;70.85
64388;BME280;50709;52.648;4.764;2023-02-23T04:36:29;101425.84;;;12.17;70.43
64388;BME280;50709;52.648;4.764;2023-02-23T04:38:55;101422.25;;;12.00;70.70
64388;BME280;50709;52.648;4.764;2023-02-23T04:41:21;101421.50;;;12.21;70.73
64388;BME280;50709;52.648;4.764;2023-02-23T04:43:46;101425.88;;;12.28;70.82
64388;BME280;50709;52.648;4.764;2023-02-23T04:46:12;101401.41;;;12.15;70.70
64388;BME280;50709;52.648;4.764;2023-02-23T04:48:37;101431.06;;;12.17;70.68
64388;BME280;50709;52.648;4.764;2023-02-23T04:51:03;101439.81;;;12.16;69.93
64388;BME280;50709;52.648;4.764;2023-02-23T04:53:29;101431.06;;;12.13;71.00
64388;BME280;50709;52.648;4.764;2023-02-23T04:55:54;101442.41;;;12.15;70.27
64388;BME280;50709;52.648;4.764;2023-02-23T04:58:19;101451.16;;;12.20;70.32
64388;BME280;50709;52.648;4.764;2023-02-23T05:00:45;101439.72;;;12.02;70.66
64388;BME280;50709;52.648;4.764;2023-02-23T05:03:10;101424.03;;;12.02;70.64
64388;BME280;50709;52.648;4.764;2023-02-23T05:05:36;101434.53;;;12.05;70.31
64388;BME280;50709;52.648;4.764;2023-02-23T05:08:02;101430.16;;;12.07;70.71
64388;BME280;50709;52.648;4.764;2023-02-23T05:10:27;101450.34;;;12.25;70.71
64388;BME280;50709;52.648;4.764;2023-02-23T05:12:53;101440.72;;;12.23;70.80
64388;BME280;50709;52.648;4.764;2023-02-23T05:15:19;101440.69;;;12.14;70.73
64388;BME280;50709;52.648;4.764;2023-02-23T05:17:45;101451.09;;;12.06;70.02
64388;BME280;50709;52.648;4.764;2023-02-23T05:20:11;101447.56;;;11.99;70.94
64388;BME280;50709;52.648;4.764;2023-02-23T05:22:37;101447.59;;;12.02;70.31
64388;BME280;50709;52.648;4.764;2023-02-23T05:25:03;101455.50;;;12.15;70.86
64388;BME280;50709;52.648;4.764;2023-02-23T05:27:29;101460.72;;;12.11;70.76
64388;BME280;50709;52.648;4.764;2023-02-23T05:29:56;101453.66;;;12.00;70.47
64388;BME280;50709;52.648;4.764;2023-02-23T05:32:22;101464.31;;;12.31;70.47
64388;BME280;50709;52.648;4.764;2023-02-23T05:34:48;101458.13;;;12.11;70.77
64388;BME280;50709;52.648;4.764;2023-02-23T05:37:13;101468.63;;;12.19;70.60
64388;BME280;50709;52.648;4.764;2023-02-23T05:39:39;101454.63;;;12.13;71.30
64388;BME280;50709;52.648;4.764;2023-02-23T05:42:04;101452.94;;;12.19;69.81
64388;BME280;50709;52.648;4.764;2023-02-23T05:44:29;101457.25;;;12.09;70.18
64388;BME280;50709;52.648;4.764;2023-02-23T05:46:55;101463.41;;;12.18;70.14
64388;BME280;50709;52.648;4.764;2023-02-23T05:49:20;101450.31;;;12.19;70.70
64388;BME280;50709;52.648;4.764;2023-02-23T05:51:46;101458.16;;;12.21;69.86
64388;BME280;50709;52.648;4.764;2023-02-23T05:54:11;101447.63;;;12.11;69.99
64388;BME280;50709;52.648;4.764;2023-02-23T05:56:38;101453.78;;;12.18;71.13
64388;BME280;50709;52.648;4.764;2023-02-23T05:59:04;101464.31;;;12.27;70.02
64388;BME280;50709;52.648;4.764;2023-02-23T06:01:30;101453.94;;;12.52;70.04
64388;BME280;50709;52.648;4.764;2023-02-23T06:03:56;101466.31;;;12.95;67.95
64388;BME280;50709;52.648;4.764;2023-02-23T06:06:22;101460.22;;;13.33;66.27
64388;BME280;50709;52.648;4.764;2023-02-23T06:08:48;101462.03;;;13.53;65.80
64388;BME280;50709;52.648;4.764;2023-02-23T06:11:14;101459.38;;;13.85;64.74
64388;BME280;50709;52.648;4.764;2023-02-23T06:13:39;101461.94;;;14.11;63.60
64388;BME280;50709;52.648;4.764;2023-02-23T06:16:06;101451.44;;;14.11;63.34
64388;BME280;50709;52.648;4.764;2023-02-23T06:18:32;101463.50;;;14.59;62.43
64388;BME280;50709;52.648;4.764;2023-02-23T06:20:59;101457.31;;;14.85;61.06
64388;BME280;50709;52.648;4.764;2023-02-23T06:23:28;101461.56;;;14.98;61.37
64388;BME280;50709;52.648;4.764;2023-02-23T06:25:54;101465.13;;;14.97;61.96
64388;BME280;50709;52.648;4.764;2023-02-23T06:28:20;101462.38;;;15.11;60.38
64388;BME280;50709;52.648;4.764;2023-02-23T06:30:45;101469.09;;;15.51;59.09
64388;BME280;50709;52.648;4.764;2023-02-23T06:33:11;101465.19;;;16.73;55.29
64388;BME280;50709;52.648;4.764;2023-02-23T06:35:37;101474.97;;;16.64;56.40
64388;BME280;50709;52.648;4.764;2023-02-23T06:38:03;101487.09;;;17.40;56.45
64388;BME280;50709;52.648;4.764;2023-02-23T06:40:29;101474.41;;;17.08;57.26
64388;BME280;50709;52.648;4.764;2023-02-23T06:42:55;101479.31;;;16.67;56.97
64388;BME280;50709;52.648;4.764;2023-02-23T06:45:20;101480.59;;;16.34;58.62
64388;BME280;50709;52.648;4.764;2023-02-23T06:47:46;101489.25;;;16.48;59.30
64388;BME280;50709;52.648;4.764;2023-02-23T06:50:12;101492.41;;;16.76;58.67
64388;BME280;50709;52.648;4.764;2023-02-23T06:52:38;101485.69;;;17.18;58.37
64388;BME280;50709;52.648;4.764;2023-02-23T06:55:04;101493.13;;;16.88;58.56
64388;BME280;50709;52.648;4.764;2023-02-23T06:57:30;101500.50;;;16.61;58.82
64388;BME280;50709;52.648;4.764;2023-02-23T06:59:55;101501.34;;;16.64;59.04
64388;BME280;50709;52.648;4.764;2023-02-23T07:02:21;101501.25;;;16.72;59.17
64388;BME280;50709;52.648;4.764;2023-02-23T07:04:46;101511.66;;;16.83;58.57
64388;BME280;50709;52.648;4.764;2023-02-23T07:07:12;101523.03;;;16.87;59.94
64388;BME280;50709;52.648;4.764;2023-02-23T07:09:39;101515.91;;;16.96;58.44
64388;BME280;50709;52.648;4.764;2023-02-23T07:12:04;101516.50;;;17.15;58.58
64388;BME280;50709;52.648;4.764;2023-02-23T07:14:30;101519.13;;;16.47;58.36
64388;BME280;50709;52.648;4.764;2023-02-23T07:16:57;101511.34;;;16.35;59.75
64388;BME280;50709;52.648;4.764;2023-02-23T07:19:22;101530.03;;;16.10;59.91
64388;BME280;50709;52.648;4.764;2023-02-23T07:21:48;101533.78;;;15.84;60.82
64388;BME280;50709;52.648;4.764;2023-02-23T07:24:13;101539.44;;;15.28;60.60
64388;BME280;50709;52.648;4.764;2023-02-23T07:26:39;101535.25;;;14.93;60.84
64388;BME280;50709;52.648;4.764;2023-02-23T07:29:10;101544.91;;;14.96;63.83
64388;BME280;50709;52.648;4.764;2023-02-23T07:31:36;101544.06;;;14.89;63.38
64388;BME280;50709;52.648;4.764;2023-02-23T07:34:02;101532.81;;;14.39;62.02
64388;BME280;50709;52.648;4.764;2023-02-23T07:36:27;101554.75;;;14.12;64.17
64388;BME280;50709;52.648;4.764;2023-02-23T07:38:52;101535.25;;;14.95;65.38
64388;BME280;50709;52.648;4.764;2023-02-23T07:41:18;101547.56;;;14.88;64.06
64388;BME280;50709;52.648;4.764;2023-02-23T07:43:43;101555.56;;;14.50;63.60
64388;BME280;50709;52.648;4.764;2023-02-23T07:46:09;101555.59;;;14.39;65.17
64388;BME280;50709;52.648;4.764;2023-02-23T07:48:34;101566.94;;;14.52;64.72
64388;BME280;50709;52.648;4.764;2023-02-23T07:51:00;101579.25;;;14.28;64.69
64388;BME280;50709;52.648;4.764;2023-02-23T07:53:25;101539.88;;;13.94;65.00
64388;BME280;50709;52.648;4.764;2023-02-23T07:55:59;101576.63;;;13.72;65.32
64388;BME280;50709;52.648;4.764;2023-02-23T07:58:26;101578.41;;;13.95;66.53
64388;BME280;50709;52.648;4.764;2023-02-23T08:00:51;101577.47;;;14.42;66.39
64388;BME280;50709;52.648;4.764;2023-02-23T08:03:17;101584.47;;;14.43;65.37
64388;BME280;50709;52.648;4.764;2023-02-23T08:05:42;101584.47;;;14.50;65.65
64388;BME280;50709;52.648;4.764;2023-02-23T08:08:09;101554.75;;;14.10;64.84
64388;BME280;50709;52.648;4.764;2023-02-23T08:10:35;101583.59;;;14.41;66.26
64388;BME280;50709;52.648;4.764;2023-02-23T08:13:02;101575.75;;;14.17;65.36
64388;BME280;50709;52.648;4.764;2023-02-23T08:15:27;101595.00;;;14.43;64.59
64388;BME280;50709;52.648;4.764;2023-02-23T08:17:53;101595.88;;;14.49;65.32
64388;BME280;50709;52.648;4.764;2023-02-23T08:20:18;101587.06;;;14.62;63.44
64388;BME280;50709;52.648;4.764;2023-02-23T08:22:44;101605.41;;;14.91;63.45
64388;BME280;50709;52.648;4.764;2023-02-23T08:25:09;101609.81;;;14.80;64.97
64388;BME280;50709;52.648;4.764;2023-02-23T08:27:36;101602.69;;;15.08;64.24
64388;BME280;50709;52.648;4.764;2023-02-23T08:30:03;101607.22;;;14.58;64.64
64388;BME280;50709;52.648;4.764;2023-02-23T08:32:32;101604.59;;;14.69;64.92
64388;BME280;50709;52.648;4.764;2023-02-23T08:34:59;101612.50;;;14.47;65.07
64388;BME280;50709;52.648;4.764;2023-02-23T08:37:30;101615.16;;;14.35;65.75
64388;BME280;50709;52.648;4.764;2023-02-23T08:39:56;101628.28;;;14.44;66.76
64388;BME280;50709;52.648;4.764;2023-02-23T08:42:22;101621.28;;;14.42;64.70
64388;BME280;50709;52.648;4.764;2023-02-23T08:44:47;101613.41;;;14.28;65.09
64388;BME280;50709;52.648;4.764;2023-02-23T08:47:15;101616.91;;;14.13;66.65
64388;BME280;50709;52.648;4.764;2023-02-23T08:49:48;101624.81;;;13.93;65.43
64388;BME280;50709;52.648;4.764;2023-02-23T08:52:13;101629.19;;;14.20;67.21
64388;BME280;50709;52.648;4.764;2023-02-23T08:54:39;101626.53;;;14.43;66.09
64388;BME280;50709;52.648;4.764;2023-02-23T08:57:04;101611.63;;;14.58;64.69
64388;BME280;50709;52.648;4.764;2023-02-23T08:59:29;101638.78;;;14.07;64.93
64388;BME280;50709;52.648;4.764;2023-02-23T09:01:55;101621.28;;;14.14;66.16
64388;BME280;50709;52.648;4.764;2023-02-23T09:04:20;101644.06;;;14.13;67.19
64388;BME280;50709;52.648;4.764;2023-02-23T09:06:46;101637.91;;;14.11;66.91
64388;BME280;50709;52.648;4.764;2023-02-23T09:09:15;101636.19;;;14.03;66.54
64388;BME280;50709;52.648;4.764;2023-02-23T09:11:41;101637.03;;;13.91;66.94
64388;BME280;50709;52.648;4.764;2023-02-23T09:14:06;101614.25;;;13.79;66.57
64388;BME280;50709;52.648;4.764;2023-02-23T09:16:33;101623.91;;;14.63;65.78
64388;BME280;50709;52.648;4.764;2023-02-23T09:19:00;101638.75;;;14.60;64.75
64388;BME280;50709;52.648;4.764;2023-02-23T09:21:26;101639.66;;;14.16;65.16
64388;BME280;50709;52.648;4.764;2023-02-23T09:23:52;101643.09;;;14.87;64.71
64388;BME280;50709;52.648;4.764;2023-02-23T09:26:21;101630.03;;;14.70;63.36
64388;BME280;50709;52.648;4.764;2023-02-23T09:28:47;101643.97;;;14.94;63.49
64388;BME280;50709;52.648;4.764;2023-02-23T09:31:15;101649.31;;;14.52;63.23
64388;BME280;50709;52.648;4.764;2023-02-23T09:33:41;101608.16;;;14.28;64.06
64388;BME280;50709;52.648;4.764;2023-02-23T09:36:20;101645.81;;;14.30;64.88
64388;BME280;50709;52.648;4.764;2023-02-23T09:38:48;101644.94;;;14.34;64.82
64388;BME280;50709;52.648;4.764;2023-02-23T09:44:21;101664.19;;;14.44;63.93
64388;BME280;50709;52.648;4.764;2023-02-23T09:46:57;101659.81;;;14.26;65.74
64388;BME280;50709;52.648;4.764;2023-02-23T09:49:32;101650.19;;;14.22;65.54
64388;BME280;50709;52.648;4.764;2023-02-23T09:52:00;101640.53;;;13.99;65.01
64388;BME280;50709;52.648;4.764;2023-02-23T09:54:30;101671.19;;;14.54;65.97
64388;BME280;50709;52.648;4.764;2023-02-23T09:57:01;101669.47;;;14.28;65.79
64388;BME280;50709;52.648;4.764;2023-02-23T09:59:28;101672.94;;;13.89;65.77
64388;BME280;50709;52.648;4.764;2023-02-23T10:05:03;101664.22;;;14.35;66.16
64388;BME280;50709;52.648;4.764;2023-02-23T10:10:27;101679.06;;;14.84;64.53
64388;BME280;50709;52.648;4.764;2023-02-23T10:15:52;101666.81;;;14.66;63.36
64388;BME280;50709;52.648;4.764;2023-02-23T10:18:31;101675.59;;;14.26;64.87
64388;BME280;50709;52.648;4.764;2023-02-23T10:23:41;101676.44;;;13.91;66.91
64388;BME280;50709;52.648;4.764;2023-02-23T10:26:14;101697.47;;;14.00;66.01
64388;BME280;50709;52.648;4.764;2023-02-23T10:28:41;101701.81;;;13.79;66.45
64388;BME280;50709;52.648;4.764;2023-02-23T10:31:27;101707.91;;;13.78;66.82
64388;BME280;50709;52.648;4.764;2023-02-23T10:33:57;101696.56;;;13.79;67.62
64388;BME280;50709;52.648;4.764;2023-02-23T10:36:32;101693.06;;;13.87;67.16
64388;BME280;50709;52.648;4.764;2023-02-23T10:38:59;101686.97;;;13.99;67.27
64388;BME280;50709;52.648;4.764;2023-02-23T10:41:24;101691.31;;;13.79;67.21
64388;BME280;50709;52.648;4.764;2023-02-23T10:43:50;101694.88;;;14.17;66.64
64388;BME280;50709;52.648;4.764;2023-02-23T10:46:21;101701.84;;;14.06;66.65
64388;BME280;50709;52.648;4.764;2023-02-23T10:48:50;101707.06;;;13.95;67.11
64388;BME280;50709;52.648;4.764;2023-02-23T10:51:21;101718.47;;;14.14;66.15
64388;BME280;50709;52.648;4.764;2023-02-23T10:53:48;101703.56;;;13.99;66.89
64388;BME280;50709;52.648;4.764;2023-02-23T10:56:16;101702.75;;;14.54;65.86
64388;BME280;50709;52.648;4.764;2023-02-23T10:58:45;101711.53;;;14.67;65.00
64388;BME280;50709;52.648;4.764;2023-02-23T11:01:13;101703.63;;;14.70;64.57
64388;BME280;50709;52.648;4.764;2023-02-23T11:03:49;101721.97;;;15.06;63.80
64388;BME280;50709;52.648;4.764;2023-02-23T11:06:33;101730.75;;;15.09;63.98
64388;BME280;50709;52.648;4.764;2023-02-23T11:09:22;101723.75;;;14.59;63.99
64388;BME280;50709;52.648;4.764;2023-02-23T11:12:03;101709.75;;;14.44;63.90
64388;BME280;50709;52.648;4.764;2023-02-23T11:14:30;101690.44;;;13.94;64.89
64388;BME280;50709;52.648;4.764;2023-02-23T11:16:58;101713.13;;;13.65;66.03
64388;BME280;50709;52.648;4.764;2023-02-23T11:19:34;101724.56;;;13.87;66.80
64388;BME280;50709;52.648;4.764;2023-02-23T11:22:02;101725.31;;;13.56;67.40
64388;BME280;50709;52.648;4.764;2023-02-23T11:24:34;101734.19;;;13.91;67.64
64388;BME280;50709;52.648;4.764;2023-02-23T11:27:03;101695.72;;;14.18;66.58
64388;BME280;50709;52.648;4.764;2023-02-23T11:29:39;101730.75;;;14.17;66.64
64388;BME280;50709;52.648;4.764;2023-02-23T11:32:21;101736.03;;;14.21;66.16
64388;BME280;50709;52.648;4.764;2023-02-23T11:37:37;101742.97;;;14.01;66.55
64388;BME280;50709;52.648;4.764;2023-02-23T11:43:07;101738.66;;;14.26;66.42
64388;BME280;50709;52.648;4.764;2023-02-23T11:45:48;101743.03;;;14.30;65.80
64388;BME280;50709;52.648;4.764;2023-02-23T11:48:36;101741.25;;;14.03;66.34
64388;BME280;50709;52.648;4.764;2023-02-23T11:51:07;101745.53;;;13.80;66.19
64388;BME280;50709;52.648;4.764;2023-02-23T11:53:38;101746.38;;;13.66;66.17
64388;BME280;50709;52.648;4.764;2023-02-23T11:56:07;101743.84;;;14.07;66.07
64388;BME280;50709;52.648;4.764;2023-02-23T11:58:37;101743.84;;;13.95;66.96
64388;BME280;50709;52.648;4.764;2023-02-23T12:01:06;101701.75;;;13.59;66.70
64388;BME280;50709;52.648;4.764;2023-02-23T12:06:35;101746.19;;;13.33;68.05
64388;BME280;50709;52.648;4.764;2023-02-23T12:09:27;101736.72;;;13.58;67.89
64388;BME280;50709;52.648;4.764;2023-02-23T12:11:59;101743.69;;;13.55;68.04
64388;BME280;50709;52.648;4.764;2023-02-23T12:14:35;101703.59;;;14.07;67.32
64388;BME280;50709;52.648;4.764;2023-02-23T12:17:17;101742.97;;;13.99;67.09
64388;BME280;50709;52.648;4.764;2023-02-23T12:19:48;101736.78;;;13.75;67.13
64388;BME280;50709;52.648;4.764;2023-02-23T12:22:19;101741.22;;;14.07;67.50
64388;BME280;50709;52.648;4.764;2023-02-23T12:24:51;101749.09;;;13.95;66.98
64388;BME280;50709;52.648;4.764;2023-02-23T12:27:27;101750.75;;;13.60;67.69
64388;BME280;50709;52.648;4.764;2023-02-23T12:38:02;101742.13;;;14.06;65.64
64388;BME280;50709;52.648;4.764;2023-02-23T12:40:36;101742.06;;;13.78;65.70
64388;BME280;50709;52.648;4.764;2023-02-23T12:43:20;101749.09;;;13.93;66.13
64388;BME280;50709;52.648;4.764;2023-02-23T12:45:54;101708.75;;;13.70;66.66
64388;BME280;50709;52.648;4.764;2023-02-23T12:51:20;101753.44;;;13.88;64.06
64388;BME280;50709;52.648;4.764;2023-02-23T12:53:49;101753.53;;;14.21;64.96
64388;BME280;50709;52.648;4.764;2023-02-23T12:56:43;101742.16;;;14.46;65.62
64388;BME280;50709;52.648;4.764;2023-02-23T13:01:57;101736.91;;;14.28;65.32
64388;BME280;50709;52.648;4.764;2023-02-23T13:08:04;101744.75;;;14.09;63.81
64388;BME280;50709;52.648;4.764;2023-02-23T13:15:54;101745.50;;;13.70;64.03
64388;BME280;50709;52.648;4.764;2023-02-23T13:19:05;101746.56;;;14.44;65.40
64388;BME280;50709;52.648;4.764;2023-02-23T13:21:41;101743.88;;;14.20;63.17
64388;BME280;50709;52.648;4.764;2023-02-23T13:24:15;101758.81;;;14.59;64.95
64388;BME280;50709;52.648;4.764;2023-02-23T13:26:54;101749.97;;;14.05;64.03
64388;BME280;50709;52.648;4.764;2023-02-23T13:31:53;101762.19;;;13.78;64.51
64388;BME280;50709;52.648;4.764;2023-02-23T13:34:31;101723.63;;;13.68;64.34
64388;BME280;50709;52.648;4.764;2023-02-23T13:36:59;101760.53;;;14.20;65.66
64388;BME280;50709;52.648;4.764;2023-02-23T13:42:14;101758.56;;;13.50;63.40
64388;BME280;50709;52.648;4.764;2023-02-23T13:44:50;101759.59;;;13.93;64.45
64388;BME280;50709;52.648;4.764;2023-02-23T13:47:46;101771.00;;;14.02;63.26
64388;BME280;50709;52.648;4.764;2023-02-23T13:50:23;101779.66;;;13.79;64.66
64388;BME280;50709;52.648;4.764;2023-02-23T13:52:53;101742.88;;;13.70;64.87
64388;BME280;50709;52.648;4.764;2023-02-23T13:57:52;101789.44;;;14.19;63.52
64388;BME280;50709;52.648;4.764;2023-02-23T14:00:19;101774.53;;;14.21;61.78
64388;BME280;50709;52.648;4.764;2023-02-23T14:02:46;101750.81;;;13.84;63.34
64388;BME280;50709;52.648;4.764;2023-02-23T14:05:19;101796.44;;;14.23;63.56
64388;BME280;50709;52.648;4.764;2023-02-23T14:07:50;101791.22;;;14.37;61.46
64388;BME280;50709;52.648;4.764;2023-02-23T14:28:44;101756.94;;;13.84;62.04
64388;BME280;50709;52.648;4.764;2023-02-23T14:33:37;101773.69;;;14.19;64.04
64388;BME280;50709;52.648;4.764;2023-02-23T14:39:06;101779.78;;;14.11;62.81
64388;BME280;50709;52.648;4.764;2023-02-23T14:44:33;101795.38;;;13.62;63.46
64388;BME280;50709;52.648;4.764;2023-02-23T14:47:13;101810.22;;;13.63;63.35
64388;BME280;50709;52.648;4.764;2023-02-23T14:49:46;101807.75;;;13.97;63.19
64388;BME280;50709;52.648;4.764;2023-02-23T14:52:14;101801.66;;;14.07;64.01
64388;BME280;50709;52.648;4.764;2023-02-23T14:54:44;101808.69;;;14.22;62.75
64388;BME280;50709;52.648;4.764;2023-02-23T14:57:21;101808.44;;;13.53;63.24
64388;BME280;50709;52.648;4.764;2023-02-23T14:59:57;101784.06;;;13.82;64.09
64388;BME280;50709;52.648;4.764;2023-02-23T15:02:25;101807.75;;;14.00;63.02
64388;BME280;50709;52.648;4.764;2023-02-23T15:04:51;101773.50;;;13.68;61.75
64388;BME280;50709;52.648;4.764;2023-02-23T15:07:27;101791.94;;;13.80;63.29
64388;BME280;50709;52.648;4.764;2023-02-23T15:09:56;101805.88;;;13.65;63.97